sensor_id;sensor_type;location;lat;lon;timestamp;pressure;altitude;pressure_sealevel;temperature;humidity
6528;BME280;3297;42.664;23.256;2022-10-18T00:01:02;50237.88;;;-139.84;71.07
6528;BME280;3297;42.664;23.256;2022-10-18T00:03:29;50245.66;;;-139.84;71.55
6528;BME280;3297;42.664;23.256;2022-10-18T00:05:57;50228.16;;;-139.84;71.61
6528;BME280;3297;42.664;23.256;2022-10-18T00:08:27;50233.97;;;-139.84;71.67
6528;BME280;3297;42.664;23.256;2022-10-18T00:10:55;50261.19;;;-139.84;71.60
6528;BME280;3297;42.664;23.256;2022-10-18T00:13:29;50270.91;;;-139.84;71.52
6528;BME280;3297;42.664;23.256;2022-10-18T00:16:02;50251.47;;;-139.84;72.05
6528;BME280;3297;42.664;23.256;2022-10-18T00:18:28;50230.09;;;-139.84;72.37
6528;BME280;3297;42.664;23.256;2022-10-18T00:21:01;50214.53;;;-139.84;72.31
6528;BME280;3297;42.664;23.256;2022-10-18T00:23:30;50230.09;;;-139.84;71.85
6528;BME280;3297;42.664;23.256;2022-10-18T00:26:06;50280.63;;;-139.84;72.17
6528;BME280;3297;42.664;23.256;2022-10-18T00:28:35;50245.66;;;-139.84;71.66
6528;BME280;3297;42.664;23.256;2022-10-18T00:33:46;50249.53;;;-139.84;71.76
6528;BME280;3297;42.664;23.256;2022-10-18T00:36:15;50241.75;;;-139.84;71.55
6528;BME280;3297;42.664;23.256;2022-10-18T00:38:43;50257.31;;;-139.84;71.85
6528;BME280;3297;42.664;23.256;2022-10-18T00:41:15;50241.75;;;-139.84;71.93
6528;BME280;3297;42.664;23.256;2022-10-18T00:44:01;50309.78;;;-139.84;71.92
6528;BME280;3297;42.664;23.256;2022-10-18T00:46:34;50233.97;;;-139.84;72.27
6528;BME280;3297;42.664;23.256;2022-10-18T00:49:04;50288.41;;;-139.84;72.01
6528;BME280;3297;42.664;23.256;2022-10-18T00:51:35;50226.22;;;-139.84;71.90
6528;BME280;3297;42.664;23.256;2022-10-18T00:54:05;50241.75;;;-139.84;71.96
6528;BME280;3297;42.664;23.256;2022-10-18T00:56:34;50268.97;;;-139.84;71.52
6528;BME280;3297;42.664;23.256;2022-10-18T00:59:01;50270.91;;;-139.84;72.05
6528;BME280;3297;42.664;23.256;2022-10-18T01:01:34;50274.78;;;-139.84;72.28
6528;BME280;3297;42.664;23.256;2022-10-18T01:04:02;50261.19;;;-139.84;71.93
6528;BME280;3297;42.664;23.256;2022-10-18T01:06:32;50210.66;;;-139.84;72.24
6528;BME280;3297;42.664;23.256;2022-10-18T01:09:14;50253.41;;;-139.84;72.07
6528;BME280;3297;42.664;23.256;2022-10-18T01:23:02;50237.88;;;-139.84;73.57
6528;BME280;3297;42.664;23.256;2022-10-18T01:28:26;50249.53;;;-139.84;73.83
6528;BME280;3297;42.664;23.256;2022-10-18T01:31:14;50226.22;;;-139.84;73.59
6528;BME280;3297;42.664;23.256;2022-10-18T01:33:49;50237.88;;;-139.84;73.38
6528;BME280;3297;42.664;23.256;2022-10-18T01:36:34;50241.75;;;-139.84;73.09
6528;BME280;3297;42.664;23.256;2022-10-18T01:39:08;50226.22;;;-139.84;72.46
6528;BME280;3297;42.664;23.256;2022-10-18T01:41:40;50243.69;;;-139.84;72.50
6528;BME280;3297;42.664;23.256;2022-10-18T01:44:20;50204.84;;;-139.84;72.33
6528;BME280;3297;42.664;23.256;2022-10-18T01:46:50;50226.22;;;-139.84;72.73
6528;BME280;3297;42.664;23.256;2022-10-18T01:49:18;50237.88;;;-139.84;72.66
6528;BME280;3297;42.664;23.256;2022-10-18T01:51:46;50261.19;;;-139.84;73.30
6528;BME280;3297;42.664;23.256;2022-10-18T01:54:19;50249.53;;;-139.84;73.64
6528;BME280;3297;42.664;23.256;2022-10-18T02:11:10;50257.31;;;-139.84;73.27
6528;BME280;3297;42.664;23.256;2022-10-18T02:13:43;50233.97;;;-139.84;73.55
6528;BME280;3297;42.664;23.256;2022-10-18T02:16:25;50249.53;;;-139.84;73.82
6528;BME280;3297;42.664;23.256;2022-10-18T02:19:06;50278.69;;;-139.84;73.90
6528;BME280;3297;42.664;23.256;2022-10-18T02:21:37;50216.50;;;-139.84;73.93
6528;BME280;3297;42.664;23.256;2022-10-18T02:24:05;50222.31;;;-139.84;72.99
6528;BME280;3297;42.664;23.256;2022-10-18T02:26:35;50210.66;;;-139.84;73.09
6528;BME280;3297;42.664;23.256;2022-10-18T02:29:03;50228.16;;;-139.84;73.24
6528;BME280;3297;42.664;23.256;2022-10-18T02:31:35;50270.91;;;-139.84;73.49
6528;BME280;3297;42.664;23.256;2022-10-18T02:34:19;50226.22;;;-139.84;74.14
6528;BME280;3297;42.664;23.256;2022-10-18T02:36:57;50251.47;;;-139.84;74.15
6528;BME280;3297;42.664;23.256;2022-10-18T02:39:34;50274.78;;;-139.84;74.32
6528;BME280;3297;42.664;23.256;2022-10-18T02:42:03;50199.00;;;-139.84;73.75
6528;BME280;3297;42.664;23.256;2022-10-18T02:44:37;50230.09;;;-139.84;73.91
6528;BME280;3297;42.664;23.256;2022-10-18T02:47:05;50214.53;;;-139.84;74.24
6528;BME280;3297;42.664;23.256;2022-10-18T02:49:33;50237.88;;;-139.84;74.28
6528;BME280;3297;42.664;23.256;2022-10-18T02:52:03;50274.78;;;-139.84;74.49
6528;BME280;3297;42.664;23.256;2022-10-18T02:54:29;50241.75;;;-139.84;74.87
6528;BME280;3297;42.664;23.256;2022-10-18T02:56:59;50230.09;;;-139.84;74.74
6528;BME280;3297;42.664;23.256;2022-10-18T02:59:29;50257.31;;;-139.84;74.65
6528;BME280;3297;42.664;23.256;2022-10-18T03:01:59;50195.13;;;-139.84;74.16
6528;BME280;3297;42.664;23.256;2022-10-18T03:04:33;50233.97;;;-139.84;73.82
6528;BME280;3297;42.664;23.256;2022-10-18T03:07:03;50241.75;;;-139.84;73.72
6528;BME280;3297;42.664;23.256;2022-10-18T03:09:35;50237.88;;;-139.84;73.74
6528;BME280;3297;42.664;23.256;2022-10-18T03:12:03;50202.88;;;-139.84;74.36
6528;BME280;3297;42.664;23.256;2022-10-18T03:14:36;50243.69;;;-139.84;74.37
6528;BME280;3297;42.664;23.256;2022-10-18T03:17:03;50210.66;;;-139.84;75.09
6528;BME280;3297;42.664;23.256;2022-10-18T03:19:33;50197.06;;;-139.84;75.36
6528;BME280;3297;42.664;23.256;2022-10-18T03:21:59;50226.22;;;-139.84;75.32
6528;BME280;3297;42.664;23.256;2022-10-18T03:24:24;50206.78;;;-139.84;75.78
6528;BME280;3297;42.664;23.256;2022-10-18T03:26:50;50247.59;;;-139.84;75.66
6528;BME280;3297;42.664;23.256;2022-10-18T03:29:19;50268.97;;;-139.84;75.47
6528;BME280;3297;42.664;23.256;2022-10-18T03:31:46;50241.75;;;-139.84;75.63
6528;BME280;3297;42.664;23.256;2022-10-18T03:34:12;50197.06;;;-139.84;75.54
6528;BME280;3297;42.664;23.256;2022-10-18T03:36:41;50222.31;;;-139.84;75.78
6528;BME280;3297;42.664;23.256;2022-10-18T03:39:09;50218.44;;;-139.84;75.85
6528;BME280;3297;42.664;23.256;2022-10-18T03:41:39;50237.88;;;-139.84;75.39
6528;BME280;3297;42.664;23.256;2022-10-18T03:44:07;50249.53;;;-139.84;75.35
6528;BME280;3297;42.664;23.256;2022-10-18T03:46:33;50218.44;;;-139.84;74.88
6528;BME280;3297;42.664;23.256;2022-10-18T03:49:05;50226.22;;;-139.84;74.91
6528;BME280;3297;42.664;23.256;2022-10-18T03:51:31;50206.78;;;-139.84;74.58
6528;BME280;3297;42.664;23.256;2022-10-18T03:53:57;50232.03;;;-139.84;74.40
6528;BME280;3297;42.664;23.256;2022-10-18T03:56:23;50233.97;;;-139.84;74.67
6528;BME280;3297;42.664;23.256;2022-10-18T03:58:49;50218.44;;;-139.84;74.40
6528;BME280;3297;42.664;23.256;2022-10-18T04:01:19;50226.22;;;-139.84;74.83
6528;BME280;3297;42.664;23.256;2022-10-18T04:03:44;50226.22;;;-139.84;74.85
6528;BME280;3297;42.664;23.256;2022-10-18T04:06:10;50214.53;;;-139.84;75.00
6528;BME280;3297;42.664;23.256;2022-10-18T04:08:36;50241.75;;;-139.84;74.56
6528;BME280;3297;42.664;23.256;2022-10-18T04:11:07;50206.78;;;-139.84;74.63
6528;BME280;3297;42.664;23.256;2022-10-18T04:13:35;50210.66;;;-139.84;75.80
6528;BME280;3297;42.664;23.256;2022-10-18T04:16:05;50276.75;;;-139.84;75.63
6528;BME280;3297;42.664;23.256;2022-10-18T04:18:31;50239.81;;;-139.84;75.75
6528;BME280;3297;42.664;23.256;2022-10-18T04:20:58;50226.22;;;-139.84;76.00
6528;BME280;3297;42.664;23.256;2022-10-18T04:23:25;50253.41;;;-139.84;75.91
6528;BME280;3297;42.664;23.256;2022-10-18T04:25:52;50253.41;;;-139.84;75.84
6528;BME280;3297;42.664;23.256;2022-10-18T04:28:19;50239.81;;;-139.84;76.05
6528;BME280;3297;42.664;23.256;2022-10-18T04:30:51;50249.53;;;-139.84;76.15
6528;BME280;3297;42.664;23.256;2022-10-18T04:33:19;50241.75;;;-139.84;75.88
6528;BME280;3297;42.664;23.256;2022-10-18T04:35:50;50191.22;;;-139.84;75.83
6528;BME280;3297;42.664;23.256;2022-10-18T04:38:19;50237.88;;;-139.84;75.91
6528;BME280;3297;42.664;23.256;2022-10-18T04:40:45;50261.19;;;-139.84;75.72
6528;BME280;3297;42.664;23.256;2022-10-18T04:43:13;50241.75;;;-139.84;75.52
6528;BME280;3297;42.664;23.256;2022-10-18T04:45:44;50373.91;;;-139.84;100.00
6528;BME280;3297;42.664;23.256;2022-10-18T04:48:13;50389.47;;;-139.84;100.00
6528;BME280;3297;42.664;23.256;2022-10-18T04:50:39;50350.59;;;-139.84;89.99
6528;BME280;3297;42.664;23.256;2022-10-18T04:53:06;50342.81;;;-139.84;82.33
6528;BME280;3297;42.664;23.256;2022-10-18T04:55:37;50319.50;;;-139.84;82.66
6528;BME280;3297;42.664;23.256;2022-10-18T04:58:04;50338.94;;;-139.84;77.71
6528;BME280;3297;42.664;23.256;2022-10-18T05:00:36;50317.56;;;-139.84;81.01
6528;BME280;3297;42.664;23.256;2022-10-18T05:03:02;50309.78;;;-139.84;84.58
6528;BME280;3297;42.664;23.256;2022-10-18T05:05:30;50288.41;;;-139.84;87.56
6528;BME280;3297;42.664;23.256;2022-10-18T05:07:56;50249.53;;;-139.84;82.52
6528;BME280;3297;42.664;23.256;2022-10-18T05:10:22;50230.09;;;-139.84;83.87
6528;BME280;3297;42.664;23.256;2022-10-18T05:12:49;50358.38;;;-139.84;100.00
6528;BME280;3297;42.664;23.256;2022-10-18T05:15:16;50366.16;;;-139.84;100.00
6528;BME280;3297;42.664;23.256;2022-10-18T05:17:42;50311.72;;;-139.84;76.95
6528;BME280;3297;42.664;23.256;2022-10-18T05:20:09;50296.19;;;-139.84;79.06
6528;BME280;3297;42.664;23.256;2022-10-18T05:22:35;50325.34;;;-139.84;78.59
6528;BME280;3297;42.664;23.256;2022-10-18T05:25:03;50302.00;;;-139.84;78.41
6528;BME280;3297;42.664;23.256;2022-10-18T05:27:30;50272.84;;;-139.84;75.53
6528;BME280;3297;42.664;23.256;2022-10-18T05:29:56;50268.97;;;-139.84;74.78
6528;BME280;3297;42.664;23.256;2022-10-18T05:32:22;50251.47;;;-139.84;73.74
6528;BME280;3297;42.664;23.256;2022-10-18T05:34:49;50257.31;;;-139.84;73.91
6528;BME280;3297;42.664;23.256;2022-10-18T05:37:15;50300.06;;;-139.84;73.90
6528;BME280;3297;42.664;23.256;2022-10-18T05:39:42;50251.47;;;-139.84;74.07
6528;BME280;3297;42.664;23.256;2022-10-18T05:42:09;50274.78;;;-139.84;74.13
6528;BME280;3297;42.664;23.256;2022-10-18T05:44:35;50245.66;;;-139.84;73.57
6528;BME280;3297;42.664;23.256;2022-10-18T05:47:02;50274.78;;;-139.84;72.57
6528;BME280;3297;42.664;23.256;2022-10-18T05:49:28;50267.03;;;-139.84;71.97
6528;BME280;3297;42.664;23.256;2022-10-18T05:51:55;50292.28;;;-139.84;69.90
6528;BME280;3297;42.664;23.256;2022-10-18T05:54:23;50303.94;;;-139.84;68.83
6528;BME280;3297;42.664;23.256;2022-10-18T05:56:49;50342.81;;;-139.84;67.92
6528;BME280;3297;42.664;23.256;2022-10-18T05:59:15;50331.16;;;-139.84;65.56
6528;BME280;3297;42.664;23.256;2022-10-18T06:01:41;50323.38;;;-139.84;65.29
6528;BME280;3297;42.664;23.256;2022-10-18T06:04:08;50354.47;;;-139.84;62.84
6528;BME280;3297;42.664;23.256;2022-10-18T06:06:35;50364.19;;;-139.84;61.70
6528;BME280;3297;42.664;23.256;2022-10-18T06:09:01;50401.13;;;-139.84;58.50
6528;BME280;3297;42.664;23.256;2022-10-18T06:11:29;50370.03;;;-139.84;56.97
6528;BME280;3297;42.664;23.256;2022-10-18T06:13:56;50377.81;;;-139.84;55.72
6528;BME280;3297;42.664;23.256;2022-10-18T06:16:27;50393.34;;;-139.84;54.31
6528;BME280;3297;42.664;23.256;2022-10-18T06:18:55;50414.75;;;-139.84;54.21
6528;BME280;3297;42.664;23.256;2022-10-18T06:21:25;50420.56;;;-139.84;53.83
6528;BME280;3297;42.664;23.256;2022-10-18T06:23:54;50436.13;;;-139.84;52.44
6528;BME280;3297;42.664;23.256;2022-10-18T06:26:21;50416.69;;;-139.84;50.84
6528;BME280;3297;42.664;23.256;2022-10-18T06:28:47;50401.13;;;-139.84;49.26
6528;BME280;3297;42.664;23.256;2022-10-18T06:31:14;50420.56;;;-139.84;49.95
6528;BME280;3297;42.664;23.256;2022-10-18T06:33:40;50438.06;;;-139.84;48.83
6528;BME280;3297;42.664;23.256;2022-10-18T06:36:10;50438.06;;;-139.84;45.49
6528;BME280;3297;42.664;23.256;2022-10-18T06:38:36;50440.00;;;-139.84;46.06
6528;BME280;3297;42.664;23.256;2022-10-18T06:41:03;50395.31;;;-139.84;44.99
6528;BME280;3297;42.664;23.256;2022-10-18T06:43:29;50469.16;;;-139.84;44.80
6528;BME280;3297;42.664;23.256;2022-10-18T06:45:55;50440.00;;;-139.84;43.50
6528;BME280;3297;42.664;23.256;2022-10-18T06:48:21;50432.22;;;-139.84;41.47
6528;BME280;3297;42.664;23.256;2022-10-18T06:53:17;50416.69;;;-139.84;42.97
6528;BME280;3297;42.664;23.256;2022-10-18T06:55:43;50467.22;;;-139.84;42.96
6528;BME280;3297;42.664;23.256;2022-10-18T06:58:09;50416.69;;;-139.84;42.58
6528;BME280;3297;42.664;23.256;2022-10-18T07:00:38;50459.44;;;-139.84;42.27
6528;BME280;3297;42.664;23.256;2022-10-18T07:03:03;50476.94;;;-139.84;41.12
6528;BME280;3297;42.664;23.256;2022-10-18T07:05:30;50482.78;;;-139.84;40.18
6528;BME280;3297;42.664;23.256;2022-10-18T07:07:56;50469.16;;;-139.84;39.44
6528;BME280;3297;42.664;23.256;2022-10-18T07:10:26;50482.78;;;-139.84;39.80
6528;BME280;3297;42.664;23.256;2022-10-18T07:12:54;50500.25;;;-139.84;39.11
6528;BME280;3297;42.664;23.256;2022-10-18T07:15:20;50475.00;;;-139.84;39.42
6528;BME280;3297;42.664;23.256;2022-10-18T07:17:48;50486.66;;;-139.84;38.12
6528;BME280;3297;42.664;23.256;2022-10-18T07:20:17;50467.22;;;-139.84;37.69
6528;BME280;3297;42.664;23.256;2022-10-18T07:22:43;50490.53;;;-139.84;37.71
6528;BME280;3297;42.664;23.256;2022-10-18T07:25:10;50486.66;;;-139.84;37.71
6528;BME280;3297;42.664;23.256;2022-10-18T07:27:37;50471.09;;;-139.84;37.62
6528;BME280;3297;42.664;23.256;2022-10-18T07:30:05;50482.78;;;-139.84;36.87
6528;BME280;3297;42.664;23.256;2022-10-18T07:32:31;50513.88;;;-139.84;36.88
6528;BME280;3297;42.664;23.256;2022-10-18T07:34:58;50506.09;;;-139.84;36.72
6528;BME280;3297;42.664;23.256;2022-10-18T07:37:24;50494.44;;;-139.84;36.58
6528;BME280;3297;42.664;23.256;2022-10-18T07:39:50;50449.72;;;-139.84;35.66
6528;BME280;3297;42.664;23.256;2022-10-18T07:42:17;50490.53;;;-139.84;35.61
6528;BME280;3297;42.664;23.256;2022-10-18T07:44:43;50537.19;;;-139.84;35.98
6528;BME280;3297;42.664;23.256;2022-10-18T07:47:12;50459.44;;;-139.84;36.23
6528;BME280;3297;42.664;23.256;2022-10-18T07:49:37;50523.59;;;-139.84;36.70
6528;BME280;3297;42.664;23.256;2022-10-18T07:52:06;50498.31;;;-139.84;36.94
6528;BME280;3297;42.664;23.256;2022-10-18T07:54:33;50484.72;;;-139.84;36.07
6528;BME280;3297;42.664;23.256;2022-10-18T07:57:06;50475.00;;;-139.84;35.90
6528;BME280;3297;42.664;23.256;2022-10-18T07:59:31;50461.38;;;-139.84;35.40
6528;BME280;3297;42.664;23.256;2022-10-18T08:01:57;50494.44;;;-139.84;35.44
6528;BME280;3297;42.664;23.256;2022-10-18T08:04:23;50482.78;;;-139.84;35.60
6528;BME280;3297;42.664;23.256;2022-10-18T08:06:49;50484.72;;;-139.84;35.74
6528;BME280;3297;42.664;23.256;2022-10-18T08:09:16;50513.88;;;-139.84;35.22
6528;BME280;3297;42.664;23.256;2022-10-18T08:11:41;50475.00;;;-139.84;36.27
6528;BME280;3297;42.664;23.256;2022-10-18T08:14:07;50517.75;;;-139.84;35.05
6528;BME280;3297;42.664;23.256;2022-10-18T08:16:34;50517.75;;;-139.84;35.38
6528;BME280;3297;42.664;23.256;2022-10-18T08:19:01;50475.00;;;-139.84;35.08
6528;BME280;3297;42.664;23.256;2022-10-18T08:21:27;50443.91;;;-139.84;34.40
6528;BME280;3297;42.664;23.256;2022-10-18T08:23:53;50471.09;;;-139.84;33.79
6528;BME280;3297;42.664;23.256;2022-10-18T08:26:20;50475.00;;;-139.84;33.93
6528;BME280;3297;42.664;23.256;2022-10-18T08:28:48;50463.34;;;-139.84;33.94
6528;BME280;3297;42.664;23.256;2022-10-18T08:31:16;50475.00;;;-139.84;34.23
6528;BME280;3297;42.664;23.256;2022-10-18T08:33:43;50496.38;;;-139.84;33.86
6528;BME280;3297;42.664;23.256;2022-10-18T08:36:11;50453.59;;;-139.84;34.75
6528;BME280;3297;42.664;23.256;2022-10-18T08:38:39;50471.09;;;-139.84;34.83
6528;BME280;3297;42.664;23.256;2022-10-18T08:41:31;50465.28;;;-139.84;34.72
6528;BME280;3297;42.664;23.256;2022-10-18T08:46:48;50521.63;;;-139.84;34.28
6528;BME280;3297;42.664;23.256;2022-10-18T08:49:54;50502.19;;;-139.84;33.73
6528;BME280;3297;42.664;23.256;2022-10-18T08:52:44;50461.38;;;-139.84;33.90
6528;BME280;3297;42.664;23.256;2022-10-18T08:57:39;50486.66;;;-139.84;34.16
6528;BME280;3297;42.664;23.256;2022-10-18T09:00:14;50494.44;;;-139.84;34.12
6528;BME280;3297;42.664;23.256;2022-10-18T09:02:57;50513.88;;;-139.84;33.57
6528;BME280;3297;42.664;23.256;2022-10-18T09:06:00;50498.31;;;-139.84;33.14
6528;BME280;3297;42.664;23.256;2022-10-18T09:17:09;50517.75;;;-139.84;33.11
6528;BME280;3297;42.664;23.256;2022-10-18T09:22:20;50525.53;;;-139.84;33.57
6528;BME280;3297;42.664;23.256;2022-10-18T09:25:08;50509.97;;;-139.84;33.37
6528;BME280;3297;42.664;23.256;2022-10-18T09:30:27;50519.69;;;-139.84;33.06
6528;BME280;3297;42.664;23.256;2022-10-18T09:35:29;50478.88;;;-139.84;32.85
6528;BME280;3297;42.664;23.256;2022-10-18T09:38:03;50498.31;;;-139.84;32.54
6528;BME280;3297;42.664;23.256;2022-10-18T09:40:32;50471.09;;;-139.84;32.78
6528;BME280;3297;42.664;23.256;2022-10-18T09:43:05;50506.09;;;-139.84;32.89
6528;BME280;3297;42.664;23.256;2022-10-18T09:45:39;50449.72;;;-139.84;32.10
6528;BME280;3297;42.664;23.256;2022-10-18T09:48:30;50496.38;;;-139.84;32.67
6528;BME280;3297;42.664;23.256;2022-10-18T09:56:22;50469.16;;;-139.84;32.52
6528;BME280;3297;42.664;23.256;2022-10-18T09:58:51;50486.66;;;-139.84;32.25
6528;BME280;3297;42.664;23.256;2022-10-18T10:01:24;50471.09;;;-139.84;32.41
6528;BME280;3297;42.664;23.256;2022-10-18T10:03:50;50480.81;;;-139.84;32.17
6528;BME280;3297;42.664;23.256;2022-10-18T10:06:23;50537.19;;;-139.84;32.80
6528;BME280;3297;42.664;23.256;2022-10-18T10:09:13;50494.44;;;-139.84;32.25
6528;BME280;3297;42.664;23.256;2022-10-18T10:11:45;50527.47;;;-139.84;31.37
6528;BME280;3297;42.664;23.256;2022-10-18T10:14:13;50513.88;;;-139.84;31.84
6528;BME280;3297;42.664;23.256;2022-10-18T10:17:01;50506.09;;;-139.84;31.81
6528;BME280;3297;42.664;23.256;2022-10-18T10:20:05;50529.41;;;-139.84;31.68
6528;BME280;3297;42.664;23.256;2022-10-18T10:22:39;50475.00;;;-139.84;31.29
6528;BME280;3297;42.664;23.256;2022-10-18T10:25:27;50576.06;;;-139.84;31.58
6528;BME280;3297;42.664;23.256;2022-10-18T10:27:55;50515.81;;;-139.84;30.96
6528;BME280;3297;42.664;23.256;2022-10-18T10:30:33;50480.81;;;-139.84;31.14
6528;BME280;3297;42.664;23.256;2022-10-18T10:33:00;50513.88;;;-139.84;30.74
6528;BME280;3297;42.664;23.256;2022-10-18T10:35:33;50502.19;;;-139.84;31.27
6528;BME280;3297;42.664;23.256;2022-10-18T10:38:00;50504.16;;;-139.84;30.98
6528;BME280;3297;42.664;23.256;2022-10-18T10:40:39;50506.09;;;-139.84;31.03
6528;BME280;3297;42.664;23.256;2022-10-18T10:45:59;50500.25;;;-139.84;30.49
6528;BME280;3297;42.664;23.256;2022-10-18T10:48:27;50525.53;;;-139.84;29.95
6528;BME280;3297;42.664;23.256;2022-10-18T10:53:42;50496.38;;;-139.84;29.50
6528;BME280;3297;42.664;23.256;2022-10-18T10:56:25;50509.97;;;-139.84;29.67
6528;BME280;3297;42.664;23.256;2022-10-18T10:58:54;50498.31;;;-139.84;29.04
6528;BME280;3297;42.664;23.256;2022-10-18T11:01:24;50517.75;;;-139.84;29.21
6528;BME280;3297;42.664;23.256;2022-10-18T11:03:56;50513.88;;;-139.84;47.04
6528;BME280;3297;42.664;23.256;2022-10-18T11:06:38;50556.63;;;-139.84;42.05
6528;BME280;3297;42.664;23.256;2022-10-18T11:09:15;50494.44;;;-139.84;38.29
6528;BME280;3297;42.664;23.256;2022-10-18T11:11:51;50521.63;;;-139.84;35.71
6528;BME280;3297;42.664;23.256;2022-10-18T11:14:25;50552.75;;;-139.84;34.28
6528;BME280;3297;42.664;23.256;2022-10-18T11:17:06;50533.31;;;-139.84;32.69
6528;BME280;3297;42.664;23.256;2022-10-18T11:22:24;50513.88;;;-139.84;31.97
6528;BME280;3297;42.664;23.256;2022-10-18T11:24:51;50521.63;;;-139.84;31.46
6528;BME280;3297;42.664;23.256;2022-10-18T11:27:46;50560.50;;;-139.84;31.20
6528;BME280;3297;42.664;23.256;2022-10-18T11:33:04;50527.47;;;-139.84;30.50
6528;BME280;3297;42.664;23.256;2022-10-18T11:38:14;50490.53;;;-139.84;29.10
6528;BME280;3297;42.664;23.256;2022-10-18T11:43:29;50515.81;;;-139.84;28.87
6528;BME280;3297;42.664;23.256;2022-10-18T11:51:58;50498.31;;;-139.84;29.68
6528;BME280;3297;42.664;23.256;2022-10-18T12:05:29;50521.63;;;-139.84;30.11
6528;BME280;3297;42.664;23.256;2022-10-18T12:10:31;50482.78;;;-139.84;29.65
6528;BME280;3297;42.664;23.256;2022-10-18T12:13:00;50525.53;;;-139.84;28.66
6528;BME280;3297;42.664;23.256;2022-10-18T12:15:28;50482.78;;;-139.84;29.16
6528;BME280;3297;42.664;23.256;2022-10-18T12:18:00;50513.88;;;-139.84;28.82
6528;BME280;3297;42.664;23.256;2022-10-18T12:20:55;50527.47;;;-139.84;28.55
6528;BME280;3297;42.664;23.256;2022-10-18T12:25:55;50484.72;;;-139.84;28.47
6528;BME280;3297;42.664;23.256;2022-10-18T12:28:36;50502.19;;;-139.84;28.46
6528;BME280;3297;42.664;23.256;2022-10-18T12:31:28;50471.09;;;-139.84;28.47
6528;BME280;3297;42.664;23.256;2022-10-18T12:34:01;50484.72;;;-139.84;27.97
6528;BME280;3297;42.664;23.256;2022-10-18T12:36:43;50494.44;;;-139.84;28.13
6528;BME280;3297;42.664;23.256;2022-10-18T12:39:24;50525.53;;;-139.84;27.93
6528;BME280;3297;42.664;23.256;2022-10-18T12:41:53;50482.78;;;-139.84;27.95
6528;BME280;3297;42.664;23.256;2022-10-18T12:44:34;50455.56;;;-139.84;27.50
6528;BME280;3297;42.664;23.256;2022-10-18T12:47:03;50506.09;;;-139.84;27.46
6528;BME280;3297;42.664;23.256;2022-10-18T12:49:35;50509.97;;;-139.84;27.49
6528;BME280;3297;42.664;23.256;2022-10-18T12:52:04;50529.41;;;-139.84;27.56
6528;BME280;3297;42.664;23.256;2022-10-18T12:54:36;50492.47;;;-139.84;27.53
6528;BME280;3297;42.664;23.256;2022-10-18T12:57:04;50502.19;;;-139.84;27.01
6528;BME280;3297;42.664;23.256;2022-10-18T13:09:32;50523.59;;;-139.84;26.38
6528;BME280;3297;42.664;23.256;2022-10-18T13:15:18;50521.63;;;-139.84;26.16
6528;BME280;3297;42.664;23.256;2022-10-18T13:17:55;50459.44;;;-139.84;25.94
6528;BME280;3297;42.664;23.256;2022-10-18T13:26:24;50469.16;;;-139.84;25.75
6528;BME280;3297;42.664;23.256;2022-10-18T13:34:24;50511.91;;;-139.84;24.48
6528;BME280;3297;42.664;23.256;2022-10-18T13:39:43;50459.44;;;-139.84;23.53
6528;BME280;3297;42.664;23.256;2022-10-18T13:44:40;50459.44;;;-139.84;23.69
6528;BME280;3297;42.664;23.256;2022-10-18T13:47:11;50443.91;;;-139.84;23.93
6528;BME280;3297;42.664;23.256;2022-10-18T14:08:15;50459.44;;;-139.84;26.26
6528;BME280;3297;42.664;23.256;2022-10-18T14:11:02;50434.19;;;-139.84;26.26
6528;BME280;3297;42.664;23.256;2022-10-18T14:16:26;50403.06;;;-139.84;26.44
6528;BME280;3297;42.664;23.256;2022-10-18T14:18:57;50385.59;;;-139.84;27.07
6528;BME280;3297;42.664;23.256;2022-10-18T14:21:30;50443.91;;;-139.84;27.05
6528;BME280;3297;42.664;23.256;2022-10-18T14:23:58;50428.34;;;-139.84;27.40
6528;BME280;3297;42.664;23.256;2022-10-18T14:26:24;50401.13;;;-139.84;26.64
6528;BME280;3297;42.664;23.256;2022-10-18T14:29:06;50414.75;;;-139.84;27.09
6528;BME280;3297;42.664;23.256;2022-10-18T14:31:41;50430.28;;;-139.84;27.53
6528;BME280;3297;42.664;23.256;2022-10-18T14:34:11;50414.75;;;-139.84;27.19
6528;BME280;3297;42.664;23.256;2022-10-18T14:36:40;50389.47;;;-139.84;27.15
6528;BME280;3297;42.664;23.256;2022-10-18T14:39:25;50408.91;;;-139.84;27.41
6528;BME280;3297;42.664;23.256;2022-10-18T14:41:56;50401.13;;;-139.84;27.50
6528;BME280;3297;42.664;23.256;2022-10-18T14:44:28;50418.63;;;-139.84;27.93
6528;BME280;3297;42.664;23.256;2022-10-18T14:47:08;50389.47;;;-139.84;28.79
6528;BME280;3297;42.664;23.256;2022-10-18T14:49:42;50410.84;;;-139.84;29.34
6528;BME280;3297;42.664;23.256;2022-10-18T14:52:17;50395.31;;;-139.84;29.65
6528;BME280;3297;42.664;23.256;2022-10-18T14:54:44;50377.81;;;-139.84;30.20
6528;BME280;3297;42.664;23.256;2022-10-18T14:57:46;50418.63;;;-139.84;31.41
6528;BME280;3297;42.664;23.256;2022-10-18T15:00:31;50371.97;;;-139.84;31.76
6528;BME280;3297;42.664;23.256;2022-10-18T15:03:00;50373.91;;;-139.84;31.36
6528;BME280;3297;42.664;23.256;2022-10-18T15:05:28;50385.59;;;-139.84;31.94
6528;BME280;3297;42.664;23.256;2022-10-18T15:07:56;50432.22;;;-139.84;32.53
6528;BME280;3297;42.664;23.256;2022-10-18T15:10:27;50352.53;;;-139.84;33.27
6528;BME280;3297;42.664;23.256;2022-10-18T15:13:00;50381.69;;;-139.84;33.53
6528;BME280;3297;42.664;23.256;2022-10-18T15:15:32;50338.94;;;-139.84;34.04
6528;BME280;3297;42.664;23.256;2022-10-18T15:18:02;50373.91;;;-139.84;34.13
6528;BME280;3297;42.664;23.256;2022-10-18T15:20:37;50364.19;;;-139.84;34.41
6528;BME280;3297;42.664;23.256;2022-10-18T15:23:23;50385.59;;;-139.84;34.67
6528;BME280;3297;42.664;23.256;2022-10-18T15:26:00;50393.34;;;-139.84;35.53
6528;BME280;3297;42.664;23.256;2022-10-18T15:28:39;50401.13;;;-139.84;36.24
6528;BME280;3297;42.664;23.256;2022-10-18T15:31:36;50397.25;;;-139.84;36.81
6528;BME280;3297;42.664;23.256;2022-10-18T15:34:22;50338.94;;;-139.84;38.16
6528;BME280;3297;42.664;23.256;2022-10-18T15:36:51;50381.69;;;-139.84;38.78
6528;BME280;3297;42.664;23.256;2022-10-18T15:39:26;50344.75;;;-139.84;39.00
6528;BME280;3297;42.664;23.256;2022-10-18T15:42:00;50346.72;;;-139.84;39.50